»·PEaware :: N228Q KHII-KPSP

N228Q :: KHII-KPSP

FLIGHT INFORMATION

Flight Status: Arrived
Operator: Privately registered:
United States
More flights under this callsign
Pilot: Bruno O. (13284)
Aircraft: Unknown
(B35)
More flights by this aircraft type
Origin: KHII Lake Havasu City
United States
Destination: KPSP Palm Springs Intl
United States
More flights between these airports :: More routes between these airports
Route: TNP V370 PSP
File this flight plan on PilotEdge
Remarks:
Altitude:
(Current/Filed)
8,000ft
Speed:
(Current/Filed)
150kts
Departed: 27-Apr-20 11:12 AM
Arrived: 27-Apr-20 12:03 PM
Distance/Time
Traveled:
116nm/0:50
Distance/Time
To Go:
Arrived

Flight Plot

Page will automatically refresh every two minutes.

Flight plan parsing failed; only flown route is shown


Map Options




Map Legend


Flown Route
Filed Route
Departure Airport
Arrival Airport
Navaid (VOR, NDB)
Fix

Horizontal Profiles

Position Reports

Time Latitude Longitude Heading Altitude Ground
Speed
27-Apr-20 11:02 34.570711 -114.360467 239 786ft 0kts
27-Apr-20 11:03 34.570711 -114.360467 239 786ft 0kts
27-Apr-20 11:04 34.570711 -114.360467 239 786ft 0kts
27-Apr-20 11:05 34.570710 -114.360469 239 786ft 0kts
27-Apr-20 11:06 34.570709 -114.360471 239 786ft 0kts
27-Apr-20 11:07 34.570708 -114.360473 239 786ft 0kts
27-Apr-20 11:08 34.570356 -114.359048 141 786ft 16kts
27-Apr-20 11:09 34.564902 -114.355197 150 786ft 20kts
27-Apr-20 11:10 34.561475 -114.352280 50 786ft 7kts
27-Apr-20 11:11 34.566170 -114.354802 329 787ft 71kts
27-Apr-20 11:12 34.586253 -114.378990 268 1804ft 118kts
27-Apr-20 11:13 34.573552 -114.416624 246 2986ft 117kts
27-Apr-20 11:14 34.569652 -114.450930 299 4180ft 107kts
27-Apr-20 11:15 34.560809 -114.483699 247 5632ft 113kts
27-Apr-20 11:16 34.549592 -114.520581 247 6807ft 117kts
27-Apr-20 11:17 34.538248 -114.557815 246 7656ft 118kts
27-Apr-20 11:18 34.524699 -114.599241 247 7998ft 154kts
27-Apr-20 11:19 34.508217 -114.650499 247 8010ft 168kts
27-Apr-20 11:20 34.491001 -114.703965 247 8002ft 167kts
27-Apr-20 11:21 34.473729 -114.756987 247 8016ft 170kts
27-Apr-20 11:22 34.455271 -114.810797 247 8016ft 172kts
27-Apr-20 11:23 34.436940 -114.864960 246 8017ft 172kts
27-Apr-20 11:24 34.418343 -114.919138 246 8011ft 170kts
27-Apr-20 11:25 34.400248 -114.971774 246 8018ft 169kts
27-Apr-20 11:26 34.381762 -115.024893 245 8017ft 167kts
27-Apr-20 11:28 34.364092 -115.075778 246 8025ft 163kts
27-Apr-20 11:29 34.346261 -115.127086 246 8030ft 165kts
27-Apr-20 11:30 34.328713 -115.178902 246 8029ft 164kts
27-Apr-20 11:31 34.311269 -115.229652 246 8048ft 166kts
27-Apr-20 11:32 34.292728 -115.282867 246 8050ft 171kts
27-Apr-20 11:33 34.274121 -115.336612 246 8034ft 171kts
27-Apr-20 11:34 34.255383 -115.389752 245 8041ft 171kts
27-Apr-20 11:35 34.236980 -115.443314 246 8042ft 170kts
27-Apr-20 11:36 34.218616 -115.495971 247 8046ft 166kts
27-Apr-20 11:37 34.200833 -115.546666 246 8055ft 167kts
27-Apr-20 11:38 34.182221 -115.599525 246 8063ft 171kts
27-Apr-20 11:39 34.161435 -115.651885 242 8070ft 171kts
27-Apr-20 11:40 34.139627 -115.703603 242 8072ft 171kts
27-Apr-20 11:41 34.117967 -115.754999 242 8067ft 168kts
27-Apr-20 11:42 34.096923 -115.804908 242 8084ft 167kts
27-Apr-20 11:42 34.078900 -115.847620 242 8073ft 168kts
27-Apr-20 11:44 34.058000 -115.907072 249 8081ft 164kts
27-Apr-20 11:45 34.042372 -115.959485 249 8084ft 167kts
27-Apr-20 11:46 34.026411 -116.013062 249 8093ft 170kts
27-Apr-20 11:46 33.998917 -116.041510 191 8083ft 170kts
27-Apr-20 11:47 33.952492 -116.052060 192 8056ft 170kts
27-Apr-20 11:49 33.896866 -116.064427 189 8031ft 173kts
27-Apr-20 11:49 33.857073 -116.073259 192 8003ft 170kts
27-Apr-20 11:50 33.809905 -116.083075 190 7975ft 168kts
27-Apr-20 11:51 33.764789 -116.092653 191 7962ft 163kts
27-Apr-20 11:52 33.717867 -116.102780 191 7960ft 169kts
27-Apr-20 11:53 33.701545 -116.148103 274 7451ft 192kts
27-Apr-20 11:54 33.710441 -116.212678 283 5951ft 192kts
27-Apr-20 11:55 33.723204 -116.273477 283 4915ft 185kts
27-Apr-20 11:56 33.736075 -116.333945 284 3953ft 186kts
27-Apr-20 11:57 33.747622 -116.388431 283 2757ft 155kts
27-Apr-20 11:58 33.760221 -116.432176 295 2056ft 124kts
27-Apr-20 11:59 33.778901 -116.462634 323 1531ft 102kts
27-Apr-20 12:00 33.799257 -116.480688 322 1113ft 88kts
27-Apr-20 12:01 33.817881 -116.497202 323 650ft 78kts
27-Apr-20 12:02 33.828248 -116.506772 270 480ft 1kts
27-Apr-20 12:03 33.827845 -116.507202 178 480ft 0kts
27-Apr-20 12:04 33.825405 -116.507481 242 480ft 10kts
27-Apr-20 12:05 33.825349 -116.509852 261 480ft 0kts
27-Apr-20 12:06 33.825348 -116.509853 261 480ft 0kts
27-Apr-20 12:07 33.825348 -116.509853 261 480ft 0kts

Navigation Log

Ident Type
Flight plan parsing failed, navigation log unavailable